Time;durP1;ratioP1;P1;durP2;ratioP2;P2;SDS_P1;SDS_P2;PMS_P1;PMS_P2;Temp;Humidity;BMP_temperature;BMP_pressure;BME280_temperature;BME280_humidity;BME280_pressure;Samples;Min_cycle;Max_cycle;Signal;HPM_P1;HPM_P2
2023/04/02 00:00:19;;;;;;;1.50;1.27;;;5.60;99.90;;;;;;5063506;28;20850;-64
2023/04/02 00:03:00;;;;;;;1.50;1.17;;;5.50;99.90;;;;;;5052226;28;20035;-64
2023/04/02 00:05:30;;;;;;;3.08;1.10;;;5.50;99.90;;;;;;5062413;28;20049;-63
2023/04/02 00:07:59;;;;;;;1.38;1.10;;;5.50;99.90;;;;;;5057113;28;20032;-65
2023/04/02 00:10:33;;;;;;;1.42;1.20;;;5.40;99.90;;;;;;5061329;28;20052;-63
2023/04/02 00:13:22;;;;;;;1.40;1.20;;;5.40;99.90;;;;;;5056149;28;20040;-63
2023/04/02 00:15:50;;;;;;;1.23;1.08;;;5.40;99.90;;;;;;5052622;28;20045;-62
2023/04/02 00:18:20;;;;;;;1.40;1.17;;;5.40;99.90;;;;;;5051662;28;20142;-63
2023/04/02 00:20:52;;;;;;;1.75;1.42;;;5.40;99.90;;;;;;5040040;28;20049;-62
2023/04/02 00:23:18;;;;;;;1.60;1.33;;;5.30;99.90;;;;;;5047036;28;20467;-62
2023/04/02 00:25:45;;;;;;;1.63;1.30;;;5.20;99.90;;;;;;5054122;28;20037;-61
2023/04/02 00:28:22;;;;;;;1.60;1.23;;;5.20;99.90;;;;;;5043311;28;20040;-63
2023/04/02 00:31:09;;;;;;;1.25;1.08;;;5.20;99.90;;;;;;5051423;28;20176;-61
2023/04/02 00:33:35;;;;;;;1.25;1.13;;;5.20;99.90;;;;;;5047547;28;20059;-63
2023/04/02 00:36:06;;;;;;;1.48;1.27;;;5.20;99.90;;;;;;5042855;28;20045;-61
2023/04/02 00:38:34;;;;;;;1.23;1.13;;;5.20;99.90;;;;;;5047681;28;20520;-64
2023/04/02 00:41:06;;;;;;;2.00;1.80;;;5.20;99.90;;;;;;5042229;28;20041;-62
2023/04/02 00:43:36;;;;;;;3.17;1.80;;;5.10;99.90;;;;;;5045664;28;20049;-64
2023/04/02 00:46:09;;;;;;;1.92;1.73;;;5.10;99.90;;;;;;5044956;28;20045;-62
2023/04/02 00:49:09;;;;;;;7.28;2.08;;;5.00;99.90;;;;;;5046838;28;20040;-63
2023/04/02 00:51:52;;;;;;;3.17;2.30;;;5.00;99.90;;;;;;5035742;28;20053;-63
2023/04/02 00:54:21;;;;;;;9.13;2.20;;;5.00;99.90;;;;;;5047337;28;20036;-63
2023/04/02 00:56:54;;;;;;;3.63;2.30;;;5.00;99.90;;;;;;5036948;28;20040;-63
2023/04/02 00:59:28;;;;;;;3.38;2.50;;;4.90;99.90;;;;;;5045171;28;20452;-64
2023/04/02 01:02:00;;;;;;;2.30;2.10;;;4.90;99.90;;;;;;5028198;28;20103;-64
2023/04/02 01:04:34;;;;;;;5.03;1.88;;;5.00;99.90;;;;;;5026945;28;20080;-64
2023/04/02 01:07:05;;;;;;;2.38;2.05;;;5.00;99.90;;;;;;5020416;28;20052;-65
2023/04/02 01:09:46;;;;;;;8.18;2.50;;;5.00;99.90;;;;;;5027222;28;20068;-62
2023/04/02 01:12:30;;;;;;;2.30;2.00;;;5.00;99.90;;;;;;5018021;28;20036;-63
2023/04/02 01:15:20;;;;;;;4.63;2.67;;;4.90;99.90;;;;;;5025838;28;20508;-64
2023/04/02 01:18:25;;;;;;;13.23;2.67;;;4.90;99.90;;;;;;5022091;28;20925;-63
2023/04/02 01:21:06;;;;;;;10.98;3.00;;;4.60;99.90;;;;;;5016236;28;20426;-64
2023/04/02 01:23:44;;;;;;;20.00;3.40;;;4.60;99.90;;;;;;5026884;28;20045;-63
2023/04/02 01:26:21;;;;;;;7.03;2.40;;;4.60;99.90;;;;;;5021336;28;20041;-62
2023/04/02 01:29:01;;;;;;;4.07;3.08;;;4.50;99.90;;;;;;5023564;28;20057;-63
2023/04/02 01:31:29;;;;;;;2.60;2.05;;;4.50;99.90;;;;;;5014766;28;20037;-63
2023/04/02 01:33:55;;;;;;;3.67;2.25;;;4.50;99.90;;;;;;5024394;28;20520;-63
2023/04/02 01:37:04;;;;;;;1.58;1.42;;;4.50;99.90;;;;;;5014874;28;20075;-61
2023/04/02 01:39:36;;;;;;;1.67;1.40;;;4.50;99.90;;;;;;4994894;28;20060;-62
2023/04/02 01:42:11;;;;;;;1.40;1.15;;;4.40;99.90;;;;;;5025009;28;20042;-66
2023/04/02 01:44:42;;;;;;;1.27;1.17;;;4.40;99.90;;;;;;5027406;28;20034;-63
2023/04/02 01:47:14;;;;;;;1.38;1.25;;;4.40;99.90;;;;;;5018576;28;20157;-63
2023/04/02 01:49:45;;;;;;;1.33;1.23;;;4.40;99.90;;;;;;5024198;28;20053;-63
2023/04/02 01:52:32;;;;;;;2.28;1.85;;;4.40;99.90;;;;;;5023003;28;20041;-63
2023/04/02 01:54:58;;;;;;;1.90;1.65;;;4.30;99.90;;;;;;5026923;28;20115;-62
2023/04/02 01:57:24;;;;;;;2.20;1.73;;;4.20;99.90;;;;;;5020682;28;20790;-62
2023/04/02 01:59:50;;;;;;;1.70;1.55;;;4.20;99.90;;;;;;5020556;28;20069;-62
2023/04/02 02:02:16;;;;;;;3.25;1.77;;;4.20;99.90;;;;;;5016430;28;20557;-60
2023/04/02 02:04:42;;;;;;;2.08;1.80;;;4.20;99.90;;;;;;5027017;28;20051;-62
2023/04/02 02:07:15;;;;;;;1.45;1.33;;;4.20;99.90;;;;;;5019205;28;20048;-62
2023/04/02 02:09:42;;;;;;;1.20;1.00;;;4.20;99.90;;;;;;5024305;28;20535;-60
2023/04/02 02:12:12;;;;;;;1.17;1.08;;;4.20;99.90;;;;;;5021050;28;20041;-62
2023/04/02 02:14:38;;;;;;;1.05;0.93;;;4.10;99.90;;;;;;5026043;28;20048;-63
2023/04/02 02:17:12;;;;;;;0.90;0.90;;;4.10;99.90;;;;;;5021535;28;20045;-62
2023/04/02 02:19:42;;;;;;;1.02;0.88;;;4.20;99.90;;;;;;5023587;28;20041;-63
2023/04/02 02:22:32;;;;;;;1.13;1.00;;;4.10;99.90;;;;;;5016497;28;20049;-61
2023/04/02 02:25:04;;;;;;;1.40;1.10;;;4.00;99.90;;;;;;5027023;28;20037;-62
2023/04/02 02:27:38;;;;;;;1.60;1.50;;;4.00;99.90;;;;;;5020999;28;20529;-62
2023/04/02 02:30:15;;;;;;;1.35;1.23;;;4.00;99.90;;;;;;5023002;28;20047;-63
2023/04/02 02:33:04;;;;;;;1.90;1.50;;;4.00;99.90;;;;;;5016614;28;20059;-63
2023/04/02 02:35:41;;;;;;;1.90;1.70;;;3.90;99.90;;;;;;5023139;28;20453;-62
2023/04/02 02:38:34;;;;;;;3.65;1.35;;;3.80;99.90;;;;;;5022533;28;20080;-65
2023/04/02 02:41:38;;;;;;;1.33;1.20;;;3.90;99.90;;;;;;5016732;28;20041;-60
2023/04/02 02:44:07;;;;;;;1.00;0.90;;;3.90;99.90;;;;;;5025050;28;20444;-62
2023/04/02 02:46:35;;;;;;;1.02;0.90;;;3.80;99.90;;;;;;5018342;28;20510;-62
2023/04/02 02:49:03;;;;;;;0.98;0.80;;;3.70;99.90;;;;;;5024590;28;20037;-63
2023/04/02 02:51:59;;;;;;;0.68;0.60;;;3.80;99.90;;;;;;5020315;28;20068;-63
2023/04/02 02:54:27;;;;;;;5.30;0.73;;;3.70;99.90;;;;;;5025915;28;20049;-65
2023/04/02 02:56:58;;;;;;;0.70;0.70;;;3.70;99.90;;;;;;5016197;28;20092;-63
2023/04/02 02:59:25;;;;;;;0.68;0.60;;;3.70;99.90;;;;;;5022715;28;20053;-62
2023/04/02 03:01:51;;;;;;;0.57;0.55;;;3.60;99.90;;;;;;5015486;28;20116;-64
2023/04/02 03:04:23;;;;;;;0.60;0.60;;;3.50;99.90;;;;;;5026145;28;20037;-64
2023/04/02 03:06:54;;;;;;;1.10;0.60;;;3.50;99.90;;;;;;5015366;28;20042;-63
2023/04/02 03:09:38;;;;;;;0.60;0.60;;;3.50;99.90;;;;;;5025245;28;20046;-63
2023/04/02 03:12:20;;;;;;;0.85;0.60;;;3.40;99.90;;;;;;5017818;28;20056;-59
2023/04/02 03:15:17;;;;;;;0.57;0.50;;;3.40;99.90;;;;;;5026494;28;20041;-62
2023/04/02 03:18:07;;;;;;;1.45;0.65;;;3.40;99.90;;;;;;5020150;28;20049;-62
2023/04/02 03:20:39;;;;;;;1.17;0.55;;;3.50;99.90;;;;;;5020777;28;20124;-63
2023/04/02 03:23:16;;;;;;;2.20;0.98;;;3.50;99.90;;;;;;5019117;28;20045;-64
2023/04/02 03:26:14;;;;;;;0.80;0.80;;;3.50;99.90;;;;;;5018625;28;20046;-63
2023/04/02 03:28:44;;;;;;;0.82;0.77;;;3.40;99.90;;;;;;5020985;28;20045;-64
2023/04/02 03:31:21;;;;;;;1.45;1.10;;;3.50;99.90;;;;;;5015728;28;20060;-66
2023/04/02 03:33:56;;;;;;;2.00;1.48;;;3.40;99.90;;;;;;5022261;28;20038;-64
2023/04/02 03:36:37;;;;;;;1.42;1.15;;;3.30;99.90;;;;;;5017137;28;20107;-64
2023/04/02 03:39:02;;;;;;;1.92;1.60;;;3.30;99.90;;;;;;5024802;28;20036;-62
2023/04/02 03:41:39;;;;;;;1.30;1.20;;;3.30;99.90;;;;;;5015665;28;20037;-62
2023/04/02 03:44:22;;;;;;;1.88;1.50;;;3.30;99.90;;;;;;5025534;28;20152;-64
2023/04/02 03:47:15;;;;;;;1.63;1.40;;;3.30;99.90;;;;;;5008465;28;20517;-60
2023/04/02 03:49:55;;;;;;;2.05;1.60;;;3.30;99.90;;;;;;5021825;28;20052;-62
2023/04/02 03:52:27;;;;;;;1.50;1.23;;;3.30;99.90;;;;;;5019357;28;20046;-63
2023/04/02 03:54:56;;;;;;;1.80;1.27;;;3.30;99.90;;;;;;5028132;28;20083;-62
2023/04/02 03:57:50;;;;;;;1.77;1.40;;;3.30;99.90;;;;;;5020962;28;20568;-62
2023/04/02 04:00:19;;;;;;;1.90;1.70;;;3.20;99.90;;;;;;5019559;28;20048;-60
2023/04/02 04:03:17;;;;;;;1.65;1.40;;;3.20;99.90;;;;;;5018123;28;20038;-65
2023/04/02 04:06:04;;;;;;;1.73;1.45;;;3.10;99.90;;;;;;5025053;28;20049;-64
2023/04/02 04:08:53;;;;;;;1.55;1.30;;;3.10;99.90;;;;;;5022364;28;20053;-65
2023/04/02 04:11:26;;;;;;;2.75;1.48;;;3.10;99.90;;;;;;5016925;28;20112;-64
2023/04/02 04:13:57;;;;;;;1.60;1.30;;;3.10;99.90;;;;;;5027438;28;20160;-61
2023/04/02 04:16:48;;;;;;;1.50;1.38;;;3.10;99.90;;;;;;5020281;28;20052;-64
2023/04/02 04:19:36;;;;;;;1.50;1.25;;;3.00;99.90;;;;;;5027351;28;20037;-64
2023/04/02 04:22:28;;;;;;;1.98;1.35;;;3.00;99.90;;;;;;5015217;28;20048;-64
2023/04/02 04:25:05;;;;;;;1.90;1.20;;;3.00;99.90;;;;;;5028560;28;20458;-62
2023/04/02 04:27:41;;;;;;;1.70;1.15;;;2.90;99.90;;;;;;5020847;28;20037;-62
2023/04/02 04:30:49;;;;;;;1.63;1.38;;;2.80;99.90;;;;;;5028564;28;20069;-62
2023/04/02 04:33:23;;;;;;;1.85;1.33;;;2.80;99.90;;;;;;4995169;28;20421;-63
2023/04/02 04:35:59;;;;;;;1.48;1.20;;;2.70;99.90;;;;;;5021612;28;20082;-62
2023/04/02 04:38:38;;;;;;;3.45;1.52;;;2.70;99.90;;;;;;5028430;28;20095;-62
2023/04/02 04:41:12;;;;;;;3.47;1.38;;;2.60;99.90;;;;;;5025126;28;20504;-62
2023/04/02 04:43:51;;;;;;;1.90;1.38;;;2.70;99.90;;;;;;5028590;28;20053;-59
2023/04/02 04:46:19;;;;;;;3.72;2.08;;;2.60;99.90;;;;;;5015538;28;20034;-62
2023/04/02 04:48:52;;;;;;;2.15;1.60;;;2.60;99.90;;;;;;5025895;28;20044;-63
2023/04/02 04:51:38;;;;;;;1.70;1.40;;;2.60;99.90;;;;;;5019122;28;20088;-63
2023/04/02 04:54:03;;;;;;;2.20;1.70;;;2.60;99.90;;;;;;5027405;28;20045;-62
2023/04/02 04:56:31;;;;;;;2.20;1.73;;;2.70;99.90;;;;;;5011354;28;20422;-60
2023/04/02 04:59:20;;;;;;;1.85;1.50;;;2.60;99.90;;;;;;5024177;28;20038;-62
2023/04/02 05:01:49;;;;;;;2.35;1.60;;;2.60;99.90;;;;;;5010752;28;20042;-63
2023/04/02 05:04:33;;;;;;;1.77;1.48;;;2.70;99.90;;;;;;5027042;28;20046;-64
2023/04/02 05:07:14;;;;;;;1.85;1.60;;;2.70;99.90;;;;;;5017730;28;20079;-63
2023/04/02 05:10:30;;;;;;;1.92;1.63;;;2.70;99.90;;;;;;5037636;28;20037;-63
2023/04/02 05:13:04;;;;;;;2.20;1.80;;;2.70;99.90;;;;;;5005285;28;20045;-62
2023/04/02 05:15:40;;;;;;;4.60;1.80;;;2.60;99.90;;;;;;5027177;28;20049;-61
2023/04/02 05:18:18;;;;;;;6.53;2.17;;;2.60;99.90;;;;;;5022290;28;20120;-62
2023/04/02 05:21:06;;;;;;;7.53;2.47;;;2.60;99.90;;;;;;5021928;28;20088;-64
2023/04/02 05:23:50;;;;;;;4.93;2.58;;;2.50;99.90;;;;;;5026376;28;20575;-63
2023/04/02 05:26:38;;;;;;;8.65;2.85;;;2.50;99.90;;;;;;5017553;28;20045;-63
2023/04/02 05:29:30;;;;;;;13.27;3.85;;;2.40;99.90;;;;;;5026638;28;20175;-62
2023/04/02 05:32:22;;;;;;;36.15;4.88;;;2.50;99.90;;;;;;5032478;28;20538;-62
2023/04/02 05:34:52;;;;;;;169.25;13.98;;;2.40;99.90;;;;;;5042937;28;20045;-62
2023/04/02 05:37:21;;;;;;;720.45;36.35;;;2.40;99.90;;;;;;5042658;28;20053;-61
2023/04/02 05:40:05;;;;;;;812.22;44.38;;;2.40;99.90;;;;;;5043049;28;20052;-62
2023/04/02 05:42:34;;;;;;;506.95;26.20;;;2.40;99.90;;;;;;5037596;28;20049;-63
2023/04/02 05:45:15;;;;;;;550.47;30.00;;;2.30;99.90;;;;;;5049567;28;20037;-62
2023/04/02 05:47:43;;;;;;;392.55;19.17;;;2.20;99.90;;;;;;5040231;28;20072;-60
2023/04/02 05:50:13;;;;;;;348.48;23.13;;;2.20;99.90;;;;;;5048868;28;20049;-63
2023/04/02 05:52:45;;;;;;;416.63;25.30;;;2.20;99.90;;;;;;5041895;28;20056;-63
2023/04/02 05:55:11;;;;;;;171.20;9.90;;;2.20;99.90;;;;;;5050172;28;20089;-62
2023/04/02 05:57:50;;;;;;;361.73;19.55;;;2.20;99.90;;;;;;5039152;28;20040;-63
2023/04/02 06:00:38;;;;;;;127.47;9.73;;;2.10;99.90;;;;;;5041503;28;20459;-63
2023/04/02 06:03:31;;;;;;;80.80;6.10;;;2.10;99.90;;;;;;5040212;28;20045;-63
2023/04/02 06:06:02;;;;;;;75.13;6.30;;;2.00;99.90;;;;;;5036502;28;20098;-60
2023/04/02 06:08:44;;;;;;;133.02;10.98;;;2.00;99.90;;;;;;5044104;28;20691;-61
2023/04/02 06:11:16;;;;;;;211.90;14.75;;;1.90;99.90;;;;;;5038723;28;20087;-63
2023/04/02 06:13:41;;;;;;;523.25;29.83;;;2.00;99.90;;;;;;5044068;28;20040;-62
2023/04/02 06:16:14;;;;;;;769.50;41.72;;;1.90;99.90;;;;;;5039815;28;20048;-61
2023/04/02 06:18:41;;;;;;;899.17;47.60;;;1.90;99.90;;;;;;5044959;28;20045;-63
2023/04/02 06:21:11;;;;;;;924.47;48.20;;;1.80;99.90;;;;;;5039957;28;20041;-60
2023/04/02 06:24:10;;;;;;;996.13;54.38;;;1.80;99.90;;;;;;5045213;28;20098;-62
2023/04/02 06:26:40;;;;;;;275.60;15.07;;;1.70;99.90;;;;;;5025446;28;20140;-61
2023/04/02 06:29:29;;;;;;;809.63;39.63;;;1.80;99.90;;;;;;5047039;28;20424;-61
2023/04/02 06:32:00;;;;;;;881.30;44.63;;;1.90;99.90;;;;;;5036626;28;20041;-61
2023/04/02 06:34:28;;;;;;;913.03;52.92;;;1.80;99.90;;;;;;5044749;28;20063;-61
2023/04/02 06:36:57;;;;;;;702.95;36.10;;;1.70;99.90;;;;;;5039694;28;20502;-58
2023/04/02 06:39:25;;;;;;;657.08;33.13;;;1.70;99.90;;;;;;5045355;28;20041;-62
2023/04/02 06:42:05;;;;;;;761.10;36.97;;;1.70;99.90;;;;;;5045597;28;20043;-63
2023/04/02 06:44:35;;;;;;;677.50;34.67;;;1.80;99.90;;;;;;5045036;28;20041;-63
2023/04/02 06:47:09;;;;;;;643.80;35.80;;;1.70;99.90;;;;;;5044478;28;20041;-62
2023/04/02 06:49:47;;;;;;;940.03;51.05;;;1.80;99.90;;;;;;5043512;28;20051;-63
2023/04/02 06:52:19;;;;;;;839.80;55.08;;;1.70;99.90;;;;;;5042065;28;20037;-61
2023/04/02 06:54:45;;;;;;;808.78;42.60;;;1.80;99.90;;;;;;5042570;28;20040;-62
2023/04/02 06:57:12;;;;;;;584.40;28.85;;;1.60;99.90;;;;;;5042084;28;20492;-62
2023/04/02 06:59:37;;;;;;;661.53;32.50;;;1.60;99.90;;;;;;5044998;28;20048;-64
2023/04/02 07:02:25;;;;;;;655.88;33.78;;;1.60;99.90;;;;;;5034732;28;20045;-61
2023/04/02 07:04:51;;;;;;;312.90;17.63;;;1.60;99.90;;;;;;5039541;28;20036;-61
2023/04/02 07:07:17;;;;;;;340.73;14.55;;;1.60;99.90;;;;;;5037674;28;20599;-61
2023/04/02 07:09:42;;;;;;;382.15;18.05;;;1.60;99.90;;;;;;5045182;28;20116;-61
2023/04/02 07:12:12;;;;;;;1207.70;63.00;;;1.60;99.90;;;;;;5036590;28;20060;-61
2023/04/02 07:14:37;;;;;;;1331.38;70.10;;;1.60;99.90;;;;;;5046006;28;20040;-62
2023/04/02 07:17:03;;;;;;;818.67;39.60;;;1.60;99.90;;;;;;5039340;28;20592;-63
2023/04/02 07:19:29;;;;;;;1086.57;61.63;;;1.50;99.90;;;;;;5043930;28;20383;-62
2023/04/02 07:21:55;;;;;;;1287.63;62.85;;;1.40;99.90;;;;;;5037429;28;20475;-64
2023/04/02 07:24:20;;;;;;;1261.07;68.53;;;1.40;99.90;;;;;;5040436;28;20512;-63
2023/04/02 07:26:47;;;;;;;1086.95;64.78;;;1.40;99.90;;;;;;5037780;28;20037;-62
2023/04/02 07:29:16;;;;;;;1043.72;62.47;;;1.40;99.90;;;;;;5048694;28;20095;-62
2023/04/02 07:31:42;;;;;;;836.13;48.38;;;1.40;99.90;;;;;;5041281;28;20100;-60
2023/04/02 07:34:09;;;;;;;830.58;45.72;;;1.40;99.90;;;;;;5050065;28;20188;-65
2023/04/02 07:36:35;;;;;;;1363.72;78.38;;;1.30;99.90;;;;;;5043504;28;20575;-65
2023/04/02 07:39:02;;;;;;;965.15;51.95;;;1.40;99.90;;;;;;5048901;28;20116;-61
2023/04/02 07:41:28;;;;;;;665.20;35.88;;;1.40;99.90;;;;;;5041737;28;20113;-60
2023/04/02 07:43:54;;;;;;;504.17;25.90;;;1.40;99.90;;;;;;5049885;28;20036;-61
2023/04/02 07:46:19;;;;;;;722.03;41.70;;;1.40;99.90;;;;;;5044871;28;20037;-62
2023/04/02 07:48:46;;;;;;;184.02;10.00;;;1.40;99.90;;;;;;5048479;28;20044;-61
2023/04/02 07:51:20;;;;;;;249.77;15.60;;;1.50;99.90;;;;;;5041556;28;20064;-62
2023/04/02 07:53:48;;;;;;;595.47;32.00;;;1.30;99.90;;;;;;5046858;28;20469;-61
2023/04/02 07:56:17;;;;;;;425.02;18.67;;;1.30;99.90;;;;;;5042279;28;20510;-63
2023/04/02 07:58:42;;;;;;;320.60;15.43;;;1.30;99.90;;;;;;5048137;28;20048;-63
2023/04/02 08:01:16;;;;;;;85.65;7.55;;;1.30;99.90;;;;;;5039041;28;20076;-62
2023/04/02 08:03:41;;;;;;;67.75;6.00;;;1.30;99.90;;;;;;5048331;28;20037;-65
2023/04/02 08:06:07;;;;;;;15.70;3.70;;;1.20;99.90;;;;;;5041008;28;20091;-63
2023/04/02 08:08:32;;;;;;;26.35;5.35;;;1.20;99.90;;;;;;5048996;28;20037;-64
2023/04/02 08:10:58;;;;;;;16.48;4.90;;;1.20;99.90;;;;;;5041024;28;20030;-63
2023/04/02 08:13:24;;;;;;;102.38;6.22;;;1.20;99.90;;;;;;5047276;28;20117;-64
2023/04/02 08:15:49;;;;;;;163.68;8.68;;;1.20;99.90;;;;;;5044013;28;20041;-64
2023/04/02 08:18:15;;;;;;;35.88;4.00;;;1.30;99.90;;;;;;5044725;28;20040;-64
2023/04/02 08:20:41;;;;;;;47.38;4.93;;;1.30;99.90;;;;;;5044195;28;20044;-65
2023/04/02 08:23:14;;;;;;;97.45;6.28;;;1.20;99.90;;;;;;5045148;28;20485;-62
2023/04/02 08:25:40;;;;;;;169.10;8.85;;;1.20;99.90;;;;;;5038385;28;20051;-64
2023/04/02 08:28:05;;;;;;;145.38;8.30;;;1.20;99.90;;;;;;5044620;28;20049;-63
2023/04/02 08:30:31;;;;;;;119.63;7.85;;;1.20;99.90;;;;;;5040770;28;20102;-64
2023/04/02 08:32:57;;;;;;;97.03;7.75;;;1.20;99.90;;;;;;5045255;28;20087;-61
2023/04/02 08:35:22;;;;;;;73.70;5.65;;;1.10;99.90;;;;;;5039632;28;20473;-62
2023/04/02 08:37:48;;;;;;;13.10;3.35;;;1.10;99.90;;;;;;5040182;28;20048;-60
2023/04/02 08:40:35;;;;;;;18.38;3.17;;;1.10;99.90;;;;;;5041777;28;20036;-64
2023/04/02 08:43:27;;;;;;;6.50;3.47;;;1.10;99.90;;;;;;5045185;28;20053;-65
2023/04/02 08:46:25;;;;;;;10.23;2.95;;;1.10;99.90;;;;;;5038339;28;20464;-63
2023/04/02 08:48:59;;;;;;;13.50;2.72;;;1.20;99.90;;;;;;5045283;28;20147;-64
2023/04/02 08:51:29;;;;;;;3.15;2.00;;;1.20;99.90;;;;;;5040401;28;20075;-63
2023/04/02 08:54:05;;;;;;;4.18;2.13;;;1.20;99.90;;;;;;5048122;28;20087;-64
2023/04/02 08:56:42;;;;;;;5.05;1.77;;;1.20;99.90;;;;;;5040407;28;20053;-64
2023/04/02 08:59:23;;;;;;;5.57;1.35;;;1.30;99.90;;;;;;5047429;28;20757;-63
2023/04/02 09:02:11;;;;;;;2.08;1.73;;;1.30;99.90;;;;;;5031631;28;20052;-66
2023/04/02 09:04:39;;;;;;;6.57;2.20;;;1.30;99.90;;;;;;5047453;28;20052;-63
2023/04/02 09:07:07;;;;;;;2.75;1.75;;;1.30;99.90;;;;;;5039128;28;20057;-64
2023/04/02 09:09:36;;;;;;;3.97;1.70;;;1.30;99.90;;;;;;5045666;28;20045;-61
2023/04/02 09:12:03;;;;;;;6.75;1.63;;;1.40;99.90;;;;;;5039266;28;20033;-62
2023/04/02 09:14:43;;;;;;;3.30;1.85;;;1.40;99.90;;;;;;5046942;28;20683;-58
2023/04/02 09:17:21;;;;;;;2.33;1.50;;;1.50;99.90;;;;;;5042263;28;20091;-60
2023/04/02 09:20:00;;;;;;;2.67;1.70;;;1.60;99.90;;;;;;5038714;28;20073;-60
2023/04/02 09:22:31;;;;;;;4.68;1.55;;;1.50;99.90;;;;;;5039654;28;20055;-64
2023/04/02 09:24:59;;;;;;;4.65;1.55;;;1.40;99.90;;;;;;5047710;28;20045;-64
2023/04/02 09:27:30;;;;;;;2.55;1.42;;;1.50;99.90;;;;;;5040077;28;20049;-61
2023/04/02 09:30:02;;;;;;;5.22;1.60;;;1.60;99.90;;;;;;5044334;28;20072;-62
2023/04/02 09:32:53;;;;;;;2.55;1.50;;;1.70;99.90;;;;;;5037237;28;20036;-61
2023/04/02 09:35:25;;;;;;;2.33;1.40;;;1.70;99.90;;;;;;5035982;28;20401;-64
2023/04/02 09:38:09;;;;;;;4.05;1.65;;;1.70;99.90;;;;;;5046715;28;20033;-63
2023/04/02 09:41:01;;;;;;;8.88;2.53;;;1.70;99.90;;;;;;5041422;28;20044;-60
2023/04/02 09:43:35;;;;;;;3.17;1.77;;;1.70;99.90;;;;;;5033066;28;20091;-62
2023/04/02 09:46:05;;;;;;;6.45;2.38;;;1.60;99.90;;;;;;5040018;28;20056;-63
2023/04/02 09:48:57;;;;;;;6.20;2.75;;;1.60;99.90;;;;;;5045113;28;20041;-61
2023/04/02 09:51:28;;;;;;;5.10;2.60;;;1.60;99.90;;;;;;5028605;28;20064;-61
2023/04/02 09:54:03;;;;;;;8.32;2.80;;;1.40;99.90;;;;;;5046614;28;20707;-62
2023/04/02 09:56:29;;;;;;;7.15;3.45;;;1.30;99.90;;;;;;5039954;28;20579;-64
2023/04/02 09:59:14;;;;;;;4.35;2.38;;;1.40;99.90;;;;;;5042170;28;20045;-60
2023/04/02 10:01:42;;;;;;;7.00;2.65;;;1.40;99.90;;;;;;5035270;28;20065;-61
2023/04/02 10:04:35;;;;;;;14.90;3.83;;;1.40;99.90;;;;;;5045190;28;20037;-63
2023/04/02 10:07:02;;;;;;;9.63;3.33;;;1.40;99.90;;;;;;5043908;28;20049;-63
2023/04/02 10:09:34;;;;;;;5.50;2.95;;;1.40;99.90;;;;;;5045808;28;20040;-61
2023/04/02 10:12:03;;;;;;;6.97;2.72;;;1.30;99.90;;;;;;5032766;28;20049;-63
2023/04/02 10:14:45;;;;;;;5.65;2.90;;;1.40;99.90;;;;;;5040456;28;20493;-63
2023/04/02 10:17:14;;;;;;;9.32;3.47;;;1.40;99.90;;;;;;5032185;28;20070;-59
2023/04/02 10:19:45;;;;;;;11.07;3.75;;;1.40;99.90;;;;;;5038811;28;20041;-61
2023/04/02 10:22:17;;;;;;;6.75;3.28;;;1.30;99.90;;;;;;5032500;28;20045;-61
2023/04/02 10:24:42;;;;;;;7.20;3.28;;;1.30;99.90;;;;;;5043935;28;20084;-60
2023/04/02 10:27:36;;;;;;;4.38;2.53;;;1.30;99.90;;;;;;5037771;28;20409;-61
2023/04/02 10:30:08;;;;;;;5.18;3.15;;;1.50;99.90;;;;;;5045620;28;20033;-61
2023/04/02 10:33:07;;;;;;;7.25;3.10;;;1.60;99.90;;;;;;5036648;28;20037;-57
2023/04/02 10:36:03;;;;;;;8.27;3.13;;;1.50;99.90;;;;;;5034921;28;20045;-59
2023/04/02 10:38:45;;;;;;;8.32;3.10;;;1.60;99.90;;;;;;5043092;28;20516;-59
2023/04/02 10:41:20;;;;;;;12.07;2.88;;;1.70;99.90;;;;;;5041503;28;20033;-61
2023/04/02 10:43:53;;;;;;;10.88;2.92;;;1.60;99.90;;;;;;5044217;28;20098;-62
2023/04/02 10:46:27;;;;;;;9.40;3.15;;;1.60;99.90;;;;;;5036225;28;20037;-63
2023/04/02 10:49:29;;;;;;;6.82;2.67;;;1.60;99.90;;;;;;5044315;28;20053;-58
2023/04/02 10:52:06;;;;;;;8.38;3.97;;;1.40;99.90;;;;;;5032239;28;20052;-61
2023/04/02 10:54:48;;;;;;;7.68;3.05;;;1.50;99.90;;;;;;5045067;28;20243;-62
2023/04/02 10:57:37;;;;;;;8.32;3.10;;;1.50;99.90;;;;;;5038600;28;20045;-65
2023/04/02 11:00:09;;;;;;;5.13;2.42;;;1.50;99.90;;;;;;5045394;28;20505;-63
2023/04/02 11:02:59;;;;;;;5.68;2.63;;;1.60;99.90;;;;;;5043461;28;20156;-62
2023/04/02 11:05:42;;;;;;;6.07;2.15;;;1.60;99.90;;;;;;5032100;28;20049;-65
2023/04/02 11:08:25;;;;;;;3.65;1.90;;;1.70;99.90;;;;;;5042260;28;20052;-64
2023/04/02 11:10:56;;;;;;;3.80;1.90;;;1.80;99.90;;;;;;5035371;28;20397;-62
2023/04/02 11:13:31;;;;;;;4.20;2.20;;;1.80;99.90;;;;;;5042396;28;20132;-66
2023/04/02 11:15:57;;;;;;;6.50;2.28;;;1.70;99.90;;;;;;5040579;28;20045;-62
2023/04/02 11:18:33;;;;;;;3.80;1.88;;;1.80;99.90;;;;;;5042027;28;20048;-62
2023/04/02 11:21:23;;;;;;;3.33;1.90;;;1.90;99.90;;;;;;5036962;28;20041;-64
2023/04/02 11:24:02;;;;;;;9.57;2.35;;;1.80;99.90;;;;;;5000581;28;20045;-64
2023/04/02 11:26:37;;;;;;;6.20;2.35;;;1.90;99.90;;;;;;5041633;28;20140;-64
2023/04/02 11:29:17;;;;;;;8.70;2.72;;;1.90;99.90;;;;;;5043276;28;20071;-62
2023/04/02 11:31:49;;;;;;;9.05;2.65;;;1.90;99.90;;;;;;5035049;28;20041;-64
2023/04/02 11:34:47;;;;;;;8.90;3.58;;;1.90;99.90;;;;;;5044857;28;20044;-63
2023/04/02 11:37:38;;;;;;;8.05;2.13;;;1.90;99.90;;;;;;5021207;28;20131;-64
2023/04/02 11:40:10;;;;;;;5.05;2.17;;;2.00;99.90;;;;;;5042425;28;20681;-63
2023/04/02 11:42:39;;;;;;;7.47;2.67;;;2.10;99.90;;;;;;5039432;28;20044;-63
2023/04/02 11:45:22;;;;;;;4.90;2.08;;;2.10;99.90;;;;;;5043606;28;20099;-63
2023/04/02 11:48:00;;;;;;;7.65;2.00;;;2.20;99.90;;;;;;5043735;28;20069;-64
2023/04/02 11:50:35;;;;;;;6.13;1.90;;;2.20;99.90;;;;;;5043880;28;20033;-63
2023/04/02 11:53:02;;;;;;;5.43;2.30;;;2.20;99.90;;;;;;5041132;28;20051;-62
2023/04/02 11:55:30;;;;;;;7.65;2.13;;;2.20;99.90;;;;;;5045218;28;20037;-62
2023/04/02 11:58:19;;;;;;;10.23;2.47;;;2.00;99.90;;;;;;5043833;28;20069;-62
2023/04/02 12:00:59;;;;;;;7.15;1.95;;;2.10;99.90;;;;;;5031356;28;20049;-63
2023/04/02 12:03:45;;;;;;;9.15;2.60;;;2.20;99.90;;;;;;5047622;28;20532;-62
2023/04/02 12:06:20;;;;;;;4.75;1.80;;;2.10;99.90;;;;;;5041576;28;20040;-63
2023/04/02 12:08:57;;;;;;;6.15;2.22;;;1.90;99.90;;;;;;5045122;28;20049;-63
2023/04/02 12:11:35;;;;;;;4.85;2.05;;;1.80;99.90;;;;;;5033682;28;20067;-62
2023/04/02 12:14:26;;;;;;;6.90;2.00;;;1.70;99.90;;;;;;5044612;28;20526;-62
2023/04/02 12:16:52;;;;;;;7.93;2.08;;;1.80;99.90;;;;;;5025988;28;20052;-62
2023/04/02 12:19:19;;;;;;;3.42;2.10;;;1.70;99.90;;;;;;5048318;28;20045;-63
2023/04/02 12:21:46;;;;;;;11.25;2.55;;;1.80;99.90;;;;;;5035797;28;20045;-62
2023/04/02 12:24:21;;;;;;;7.30;2.42;;;1.70;99.90;;;;;;5044486;28;20087;-62
2023/04/02 12:26:46;;;;;;;7.60;2.58;;;1.70;99.90;;;;;;5040384;28;20045;-63
2023/04/02 12:29:26;;;;;;;5.40;1.90;;;1.80;99.90;;;;;;5047980;28;20106;-61
2023/04/02 12:31:54;;;;;;;8.25;2.90;;;1.90;99.90;;;;;;5038500;28;20041;-62
2023/04/02 12:34:22;;;;;;;5.35;1.92;;;1.80;99.90;;;;;;5046916;28;20037;-63
2023/04/02 12:36:55;;;;;;;3.53;2.00;;;1.80;99.90;;;;;;5044886;28;20067;-62
2023/04/02 12:39:21;;;;;;;4.88;2.15;;;2.00;99.90;;;;;;5047111;28;20083;-62
2023/04/02 12:41:47;;;;;;;8.25;2.85;;;2.00;99.90;;;;;;5041730;28;20037;-62
2023/04/02 12:44:16;;;;;;;4.82;1.95;;;2.10;99.90;;;;;;5046159;28;20439;-63
2023/04/02 12:46:42;;;;;;;5.18;2.00;;;2.10;99.90;;;;;;5036911;28;20075;-62
2023/04/02 12:49:35;;;;;;;6.68;2.15;;;2.20;99.90;;;;;;5048326;28;20035;-61
2023/04/02 12:52:13;;;;;;;4.57;1.85;;;2.30;99.90;;;;;;5022072;28;20055;-62
2023/04/02 12:54:52;;;;;;;6.65;2.25;;;2.20;99.90;;;;;;5064057;28;20720;-63
2023/04/02 12:57:30;;;;;;;6.20;2.08;;;2.20;99.90;;;;;;5039017;28;20040;-64
2023/04/02 13:00:04;;;;;;;4.28;1.55;;;2.20;99.90;;;;;;5047122;28;20090;-63
2023/04/02 13:02:32;;;;;;;9.25;2.15;;;2.40;99.90;;;;;;5035870;28;20052;-61
2023/04/02 13:05:00;;;;;;;7.07;2.00;;;2.30;99.90;;;;;;5043617;28;20033;-63
2023/04/02 13:07:31;;;;;;;8.05;1.88;;;2.30;99.90;;;;;;5040855;28;20044;-63
2023/04/02 13:10:06;;;;;;;3.40;1.67;;;2.30;99.90;;;;;;5045319;28;20029;-63
2023/04/02 13:12:37;;;;;;;8.35;2.30;;;2.40;99.90;;;;;;5037061;28;20118;-65
2023/04/02 13:15:07;;;;;;;4.75;1.95;;;2.40;99.90;;;;;;5045467;28;20140;-64
2023/04/02 13:17:48;;;;;;;5.68;2.05;;;2.50;99.90;;;;;;5038148;28;20072;-64
2023/04/02 13:20:37;;;;;;;7.03;2.00;;;2.70;99.90;;;;;;5042079;28;20128;-65
2023/04/02 13:23:29;;;;;;;3.88;1.73;;;2.70;99.90;;;;;;5042494;28;20413;-65
2023/04/02 13:26:01;;;;;;;5.97;1.58;;;2.70;99.90;;;;;;5033909;28;20553;-63
2023/04/02 13:28:27;;;;;;;6.28;2.63;;;2.80;99.90;;;;;;5043787;28;20036;-65
2023/04/02 13:30:53;;;;;;;8.43;2.28;;;2.90;99.90;;;;;;5040431;28;20117;-65
2023/04/02 13:33:19;;;;;;;3.78;1.83;;;2.90;99.90;;;;;;5042069;28;20452;-64